• Join FlightAware (Why Join?)
  • Login
  • US Flag 
03:11PM EDT


 

Airport Tracker/Info


-or-


 

Live Flight TrackerFlight Track Log ✈ UCA3597 ✈ 13-Dec-2013 ✈ KIAD - KBGM

Flight Track Log - Related Links

Times and Time Zones

All times are in EST time to prevent confusion due to time zone crossing. See the UCA3597 flight status page for this flight to view local times or setup timezone preferences in your user account.

Time Position Orientation Groundspeed Altitude Reporting Facility
EST Latitude Longitude Course Direction KTS MPH feet Rate Location/Type
07:23PM 39.9237 -77.0326 19° North  Level Estimated
07:24PM 39.9811 -77.0070 19° North  Level Estimated
07:25PM 40.0385 -76.9815 19° North  Level Estimated
07:26PM 40.0958 -76.9559 19° North  Level Estimated
07:27PM 40.1532 -76.9302 19° North  Level Estimated
07:28PM 40.2105 -76.9045 19° North  Level Estimated
07:29PM 40.2679 -76.8788 19° North  Level Estimated
07:30PM 40.3252 -76.8530 19° North  Level Estimated
07:31PM 40.3826 -76.8272 19° North  Level Estimated
07:32PM 40.4399 -76.8014 19° North  Level Estimated
07:33PM 40.4972 -76.7755 19° North  Level Estimated
07:34PM 40.5546 -76.7495 19° North  Level Estimated
07:35PM 40.6119 -76.7235 19° North  Level Estimated
07:36PM 40.6692 -76.6975 19° North  Level Estimated
07:37PM 40.7265 -76.6714 19° North  Level Estimated
07:38PM 40.7838 -76.6452 19° North  Level Estimated
07:39PM 40.8411 -76.6191 19° North  Level Estimated
07:40PM 40.8984 -76.5928 19° North  Level Estimated
07:41PM 40.9557 -76.5666 19° North  Level Estimated
07:42PM 41.0129 -76.5403 19° North  Level Estimated
07:43PM 41.0702 -76.5139 19° North  Level Estimated
07:44PM 41.1274 -76.4875 19° North  Level Estimated
07:45PM 41.1847 -76.4610 19° North  Level Estimated
07:46PM 41.2420 -76.4345 19° North  Level Estimated
07:47PM 41.2992 -76.4080 19° North  Level Estimated
07:48PM 41.3564 -76.3814 19° North  Level Estimated
07:49PM 41.4137 -76.3548 19° North  Level Estimated
07:50PM 41.4709 -76.3281 19° North  Level Estimated
07:51PM 41.5281 -76.3014 19° North  Level Estimated
07:52PM 41.5853 -76.2746 19° North  Level Estimated
07:53PM 41.6425 -76.2477 19° North  Level Estimated
07:54PM 41.6997 -76.2209 19° North  Level Estimated
07:55PM 41.7569 -76.1939 19° North  Level Estimated
07:56PM 41.8141 -76.1670 19° North  Level Estimated
07:57PM 41.8713 -76.1400 19° North  Level Estimated
07:58PM 41.9285 -76.1129 19° North  Level Estimated
07:59PM 41.9856 -76.0858 19° North  Level Estimated
08:00PM 42.0428 -76.0586 19° North  Level Estimated
08:01PM 42.1000 -76.0314 19° North  Level Estimated
08:02PM 42.1571 -76.0041 19° North  Level Estimated
08:03PM 42.2084 -75.9796 19° North  Level Estimated
08:04PM 42.2084 -75.9796 35° Northeast  Level Estimated
08:05PM 42.2084 -75.9796 35° Northeast  Level Estimated
08:06PM 42.2084 -75.9796 35° Northeast  Level Estimated
08:07PM 42.2084 -75.9796 35° Northeast  Level Estimated
08:08PM 42.2084 -75.9796 35° Northeast  Level Estimated
08:09PM 42.2084 -75.9796 35° Northeast  Level Estimated
08:10PM 42.2084 -75.9796 35° Northeast  Level Estimated
08:11PM 42.2084 -75.9796 35° Northeast  Level Estimated
08:12PM 42.2084 -75.9796 35° Northeast  Level Estimated
08:13PM 42.2084 -75.9796 35° Northeast  Level Estimated
08:14PM 42.2084 -75.9796 35° Northeast  Level Estimated